createdAt,value
2023-12-11T00:01:37.013Z,96230.88
2023-12-11T00:04:06.517Z,96218.97
2023-12-11T00:06:40.481Z,96214.06
2023-12-11T00:09:07.105Z,96247.25
2023-12-11T00:11:33.649Z,96221.81
2023-12-11T00:14:00.317Z,96229.34
2023-12-11T00:16:26.988Z,96235.16
2023-12-11T00:18:53.723Z,96220.72
2023-12-11T00:21:20.625Z,96227.75
2023-12-11T00:23:47.437Z,96222.66
2023-12-11T00:26:14.052Z,96233.69
2023-12-11T00:28:41.107Z,96236.31
2023-12-11T00:31:12.070Z,96234.69
2023-12-11T00:33:40.820Z,96244.09
2023-12-11T00:36:07.774Z,96232.66
2023-12-11T00:38:34.306Z,96225.69
2023-12-11T00:41:00.877Z,96228.38
2023-12-11T00:43:27.462Z,96243.06
2023-12-11T00:46:23.001Z,96254.19
2023-12-11T00:48:50.465Z,96259.19
2023-12-11T00:51:18.413Z,96252.13
2023-12-11T00:53:46.141Z,96262.44
2023-12-11T00:56:13.274Z,96275.22
2023-12-11T00:58:39.980Z,96285.38
2023-12-11T01:01:07.992Z,96288.81
2023-12-11T01:03:36.775Z,96304.94
2023-12-11T01:06:03.678Z,96301.28
2023-12-11T01:08:31.299Z,96307.31
2023-12-11T01:11:00.916Z,96315.88
2023-12-11T01:13:27.558Z,96308.16
2023-12-11T01:15:54.221Z,96291.56
2023-12-11T01:18:20.949Z,96287.03
2023-12-11T01:20:47.633Z,96294.81
2023-12-11T01:23:14.216Z,96299.88
2023-12-11T01:25:40.785Z,96306.78
2023-12-11T01:28:07.502Z,96307.69
2023-12-11T01:30:34.257Z,96322.44
2023-12-11T01:33:01.029Z,96333.84
2023-12-11T01:35:27.663Z,96328.72
2023-12-11T01:37:54.218Z,96307.38
2023-12-11T01:40:20.800Z,96311.06
2023-12-11T01:42:47.469Z,96312.84
2023-12-11T01:45:14.266Z,96301.72
2023-12-11T01:47:41.274Z,96297.41
2023-12-11T01:50:08.738Z,96301.56
2023-12-11T01:52:36.791Z,96295.91
2023-12-11T01:55:05.487Z,96282.41
2023-12-11T01:57:32.949Z,96289.78
2023-12-11T02:00:01.081Z,96287.19
2023-12-11T02:02:30.782Z,96299.38
2023-12-11T02:04:57.635Z,96302.78
2023-12-11T02:07:24.366Z,96300.78
2023-12-11T02:09:51.090Z,96317.94
2023-12-11T02:12:17.867Z,96310.97
2023-12-11T02:14:44.443Z,96317.75
2023-12-11T02:17:11.235Z,96315.16
2023-12-11T02:19:38.008Z,96305.78
2023-12-11T02:22:05.000Z,96313.72
2023-12-11T02:24:35.935Z,96305.81
2023-12-11T02:27:03.240Z,96308.44
2023-12-11T02:29:29.841Z,96304.91
2023-12-11T02:31:56.462Z,96287.63
2023-12-11T02:34:23.164Z,96290.91
2023-12-11T02:36:49.806Z,96281.94
2023-12-11T02:39:16.499Z,96265.34
2023-12-11T02:41:43.140Z,96266.31
2023-12-11T02:44:09.777Z,96276.22
2023-12-11T02:46:39.351Z,96250.69
2023-12-11T02:49:06.481Z,96270.25
2023-12-11T02:51:33.208Z,96278.41
2023-12-11T02:53:59.943Z,96278.41
2023-12-11T02:56:26.510Z,96275.94
2023-12-11T02:58:53.076Z,96273.03
2023-12-11T03:01:20.500Z,96283.66
2023-12-11T03:03:47.149Z,96301.03
2023-12-11T03:06:22.840Z,96306.94
2023-12-11T03:08:49.581Z,96305.34
2023-12-11T03:11:16.216Z,96308.53
2023-12-11T03:13:42.763Z,96310.19
2023-12-11T03:16:14.337Z,96312.75
2023-12-11T03:18:42.715Z,96313.97
2023-12-11T03:21:09.432Z,96305.94
2023-12-11T03:23:36.041Z,96308.69
2023-12-11T03:26:02.597Z,96343.38
2023-12-11T03:28:29.620Z,96362.59
2023-12-11T03:30:56.404Z,96380.28
2023-12-11T03:33:23.218Z,96366.78
2023-12-11T03:35:49.867Z,96362.53
2023-12-11T03:38:16.483Z,96360.75
2023-12-11T03:40:43.111Z,96339.59
2023-12-11T03:43:09.929Z,96334.31
2023-12-11T03:45:36.900Z,96334.31
2023-12-11T03:48:03.825Z,96322.91
2023-12-11T03:50:30.556Z,96318.56
2023-12-11T03:52:57.336Z,96317.47
2023-12-11T03:55:23.931Z,96319.00
2023-12-11T03:57:50.570Z,96328.88
2023-12-11T04:00:18.138Z,96326.59
2023-12-11T04:02:44.789Z,96331.00
2023-12-11T04:05:11.953Z,96339.31
2023-12-11T04:07:38.545Z,96345.22
2023-12-11T04:10:05.510Z,96337.03
2023-12-11T04:12:32.235Z,96342.28
2023-12-11T04:14:58.900Z,96337.34
2023-12-11T04:17:25.547Z,96338.13
2023-12-11T04:19:52.369Z,96332.28
2023-12-11T04:22:19.026Z,96348.84
2023-12-11T04:24:45.656Z,96338.66
2023-12-11T04:27:12.360Z,96330.69
2023-12-11T04:29:38.920Z,96313.47
2023-12-11T04:32:06.161Z,96319.28
2023-12-11T04:34:32.718Z,96273.69
2023-12-11T04:36:59.377Z,96267.09
2023-12-11T04:39:25.966Z,96287.59
2023-12-11T04:41:52.568Z,96295.34
2023-12-11T04:44:19.087Z,96307.84
2023-12-11T04:46:45.628Z,96312.06
2023-12-11T04:49:12.348Z,96306.94
2023-12-11T04:51:39.033Z,96303.50
2023-12-11T04:54:07.684Z,96294.22
2023-12-11T04:56:35.512Z,96296.66
2023-12-11T04:59:02.128Z,96310.44
2023-12-11T05:01:28.766Z,96295.06
2023-12-11T05:03:55.685Z,96294.31
2023-12-11T05:06:22.326Z,96282.31
2023-12-11T05:08:48.933Z,96292.44
2023-12-11T05:11:15.773Z,96295.31
2023-12-11T05:13:42.323Z,96300.91
2023-12-11T05:16:09.294Z,96305.81
2023-12-11T05:18:38.276Z,96300.97
2023-12-11T05:21:09.434Z,96310.28
2023-12-11T05:23:36.697Z,96310.00
2023-12-11T05:26:03.560Z,96304.19
2023-12-11T05:28:30.171Z,96307.66
2023-12-11T05:30:57.065Z,96300.69
2023-12-11T05:33:23.765Z,96300.28
2023-12-11T05:35:50.347Z,96305.31
2023-12-11T05:38:16.901Z,96303.25
2023-12-11T05:40:43.638Z,96295.41
2023-12-11T05:43:10.281Z,96284.59
2023-12-11T05:45:37.628Z,96279.78
2023-12-11T05:48:04.825Z,96278.97
2023-12-11T05:50:34.143Z,96289.91
2023-12-11T05:53:01.231Z,96276.25
2023-12-11T05:55:27.756Z,96280.03
2023-12-11T05:57:54.363Z,96278.59
2023-12-11T06:00:24.000Z,96280.97
2023-12-11T06:02:50.609Z,96281.25
2023-12-11T06:05:17.252Z,96281.47
2023-12-11T06:07:43.902Z,96307.84
2023-12-11T06:10:10.832Z,96299.94
2023-12-11T06:12:37.605Z,96288.69
2023-12-11T06:15:04.620Z,96301.34
2023-12-11T06:17:31.702Z,96295.50
2023-12-11T06:19:58.565Z,96294.91
2023-12-11T06:22:25.230Z,96308.03
2023-12-11T06:24:51.900Z,96309.63
2023-12-11T06:27:18.474Z,96297.88
2023-12-11T06:29:45.019Z,96278.75
2023-12-11T06:32:11.569Z,96278.25
2023-12-11T06:34:38.379Z,96283.81
2023-12-11T06:37:05.280Z,96279.94
2023-12-11T06:39:32.723Z,96269.16
2023-12-11T06:42:00.320Z,96270.19
2023-12-11T06:44:27.237Z,96277.69
2023-12-11T06:46:54.194Z,96262.28
2023-12-11T06:49:21.323Z,96274.72
2023-12-11T06:51:48.242Z,96273.97
2023-12-11T06:54:14.969Z,96278.00
2023-12-11T06:56:41.655Z,96277.66
2023-12-11T06:59:08.496Z,96266.09
2023-12-11T07:01:36.683Z,96261.75
2023-12-11T07:04:04.311Z,96246.09
2023-12-11T07:06:31.205Z,96245.69
2023-12-11T07:08:58.300Z,96248.03
2023-12-11T07:11:25.874Z,96247.78
2023-12-11T07:13:53.922Z,96243.97
2023-12-11T07:16:20.861Z,96240.31
2023-12-11T07:18:48.254Z,96237.50
2023-12-11T07:21:15.100Z,96244.28
2023-12-11T07:23:41.834Z,96250.91
2023-12-11T07:26:11.467Z,96251.44
2023-12-11T07:28:38.303Z,96247.59
2023-12-11T07:31:06.909Z,96243.69
2023-12-11T07:33:34.595Z,96234.91
2023-12-11T07:36:02.798Z,96237.66
2023-12-11T07:38:29.883Z,96243.19
2023-12-11T07:40:57.393Z,96231.72
2023-12-11T07:43:24.379Z,96240.84
2023-12-11T07:45:52.877Z,96231.00
2023-12-11T07:48:33.101Z,96231.19
2023-12-11T07:50:59.727Z,96221.94
2023-12-11T07:53:28.982Z,96229.66
2023-12-11T07:55:55.652Z,96220.88
2023-12-11T07:58:22.352Z,96228.88
2023-12-11T08:00:49.090Z,96210.81
2023-12-11T08:03:15.715Z,96228.41
2023-12-11T08:05:42.586Z,96230.19
2023-12-11T08:08:13.297Z,96209.38
2023-12-11T08:10:39.993Z,96212.00
2023-12-11T08:13:07.202Z,96201.50
2023-12-11T08:15:36.905Z,96198.72
2023-12-11T08:18:04.557Z,96197.50
2023-12-11T08:20:31.719Z,96180.59
2023-12-11T08:22:58.279Z,96171.75
2023-12-11T08:25:24.995Z,96182.63
2023-12-11T08:27:51.627Z,96182.25
2023-12-11T08:30:18.323Z,96195.03
2023-12-11T08:32:45.024Z,96194.94
2023-12-11T08:35:11.671Z,96195.69
2023-12-11T08:37:44.485Z,96190.72
2023-12-11T08:47:57.681Z,96175.00
2023-12-11T08:50:24.354Z,96170.88
2023-12-11T08:52:50.937Z,96166.44
2023-12-11T08:55:17.708Z,96177.75
2023-12-11T08:57:45.921Z,96170.88
2023-12-11T09:00:13.210Z,96178.44
2023-12-11T09:02:39.782Z,96169.69
2023-12-11T09:05:06.597Z,96170.44
2023-12-11T09:07:33.671Z,96170.56
2023-12-11T09:10:00.583Z,96163.09
2023-12-11T09:12:33.077Z,96163.91
2023-12-11T09:15:01.542Z,96179.56
2023-12-11T09:17:29.916Z,96198.22
2023-12-11T09:19:57.180Z,96169.16
2023-12-11T09:22:24.536Z,96141.78
2023-12-11T09:24:51.927Z,96156.59
2023-12-11T09:27:19.065Z,96157.13
2023-12-11T09:29:49.794Z,96147.44
2023-12-11T09:32:16.915Z,96129.72
2023-12-11T09:34:43.889Z,96155.63
2023-12-11T09:37:10.585Z,96174.56
2023-12-11T09:39:37.202Z,96163.16
2023-12-11T09:42:04.319Z,96164.81
2023-12-11T09:44:32.290Z,96174.63
2023-12-11T09:47:08.525Z,96196.47
2023-12-11T09:49:36.076Z,96214.84
2023-12-11T09:52:03.410Z,96226.50
2023-12-11T09:54:30.242Z,96209.56
2023-12-11T09:56:58.673Z,96205.47
2023-12-11T09:59:26.529Z,96202.53
2023-12-11T10:01:53.721Z,96194.59
2023-12-11T10:04:20.431Z,96205.16
2023-12-11T10:06:47.060Z,96198.44
2023-12-11T10:09:30.809Z,96184.91
2023-12-11T10:12:02.113Z,96168.50
2023-12-11T10:14:34.820Z,96146.09
2023-12-11T10:17:17.490Z,96146.28
2023-12-11T10:19:44.585Z,96133.38
2023-12-11T10:22:26.707Z,96126.31
2023-12-11T10:24:53.370Z,96122.47
2023-12-11T10:27:27.375Z,96110.53
2023-12-11T10:30:14.233Z,96107.84
2023-12-11T10:32:42.179Z,96108.59
2023-12-11T10:35:09.962Z,96132.75
2023-12-11T10:37:36.687Z,96141.94
2023-12-11T10:40:04.688Z,96150.31
2023-12-11T10:42:31.443Z,96169.56
2023-12-11T10:44:58.162Z,96181.06
2023-12-11T10:47:25.006Z,96208.16
2023-12-11T10:49:51.753Z,96203.56
2023-12-11T10:52:18.712Z,96184.63
2023-12-11T10:54:46.433Z,96183.91
2023-12-11T10:57:15.255Z,96177.00
2023-12-11T10:59:42.584Z,96178.56
2023-12-11T11:02:12.432Z,96163.81
2023-12-11T11:04:42.628Z,96170.22
2023-12-11T11:07:18.034Z,96170.75
2023-12-11T11:10:07.577Z,96172.81
2023-12-11T11:12:44.546Z,96173.78
2023-12-11T11:15:11.441Z,96164.47
2023-12-11T11:18:03.681Z,96166.47
2023-12-11T11:20:34.432Z,96156.41
2023-12-11T11:23:16.523Z,96150.63
2023-12-11T11:25:52.146Z,96123.56
2023-12-11T11:28:44.524Z,96129.28
2023-12-11T11:31:20.178Z,96131.47
2023-12-11T11:33:56.170Z,96142.22
2023-12-11T11:36:47.738Z,96157.59
2023-12-11T11:39:14.713Z,96169.84
2023-12-11T11:41:43.231Z,96146.31
2023-12-11T11:44:11.489Z,96152.97
2023-12-11T11:46:56.830Z,96154.84
2023-12-11T11:49:34.142Z,96153.78
2023-12-11T11:52:13.207Z,96152.97
2023-12-11T11:54:41.104Z,96143.81
2023-12-11T11:57:07.872Z,96143.00
2023-12-11T11:59:45.194Z,96144.31
2023-12-11T12:02:11.803Z,96136.47
2023-12-11T12:04:38.467Z,96124.59
2023-12-11T12:07:06.880Z,96135.50
2023-12-11T12:09:34.970Z,96134.06
2023-12-11T12:12:02.485Z,96124.53
2023-12-11T12:14:29.230Z,96127.53
2023-12-11T12:16:56.675Z,96135.91
2023-12-11T12:19:33.425Z,96128.66
2023-12-11T12:22:02.908Z,96135.84
2023-12-11T12:24:30.878Z,96138.22
2023-12-11T12:26:57.341Z,96125.03
2023-12-11T12:29:24.910Z,96118.97
2023-12-11T12:31:52.655Z,96152.06
2023-12-11T12:34:20.137Z,96149.38
2023-12-11T12:36:48.063Z,96142.41
2023-12-11T12:39:18.465Z,96145.16
2023-12-11T12:41:45.173Z,96163.06
2023-12-11T12:44:12.594Z,96147.38
2023-12-11T12:46:43.441Z,96145.25
2023-12-11T12:49:11.425Z,96152.19
2023-12-11T12:51:50.192Z,96146.94
2023-12-11T12:54:17.619Z,96132.88
2023-12-11T12:56:48.295Z,96118.69
2023-12-11T12:59:14.948Z,96105.44
2023-12-11T13:01:42.265Z,96091.56
2023-12-11T13:04:10.103Z,96096.69
2023-12-11T13:06:37.401Z,96127.66
2023-12-11T13:09:06.026Z,96130.84
2023-12-11T13:11:48.491Z,96121.69
2023-12-11T13:14:16.424Z,96123.22
2023-12-11T13:16:48.674Z,96131.72
2023-12-11T13:19:16.150Z,96133.84
2023-12-11T13:21:45.554Z,96101.41
2023-12-11T13:24:12.158Z,96114.91
2023-12-11T13:26:39.291Z,96137.31
2023-12-11T13:29:06.069Z,96144.69
2023-12-11T13:31:32.676Z,96135.78
2023-12-11T13:33:59.412Z,96115.38
2023-12-11T13:36:26.095Z,96109.44
2023-12-11T13:38:52.762Z,96097.19
2023-12-11T13:41:19.636Z,96100.13
2023-12-11T13:43:46.277Z,96112.91
2023-12-11T13:46:12.892Z,96140.19
2023-12-11T13:48:39.539Z,96167.72
2023-12-11T13:51:09.714Z,96185.72
2023-12-11T13:53:36.860Z,96187.84
2023-12-11T13:56:03.765Z,96183.53
2023-12-11T13:58:30.297Z,96195.56
2023-12-11T14:00:57.217Z,96201.44
2023-12-11T14:03:23.904Z,96183.16
2023-12-11T14:05:50.721Z,96175.44
2023-12-11T14:08:18.695Z,96173.81
2023-12-11T14:10:45.858Z,96200.81
2023-12-11T14:13:14.614Z,96196.19
2023-12-11T14:15:46.810Z,96207.38
2023-12-11T14:18:14.261Z,96221.94
2023-12-11T14:20:41.326Z,96230.72
2023-12-11T14:23:08.203Z,96229.69
2023-12-11T14:25:34.886Z,96237.91
2023-12-11T14:28:05.709Z,96225.50
2023-12-11T14:30:36.467Z,96239.22
2023-12-11T14:33:05.478Z,96242.16
2023-12-11T14:35:32.259Z,96238.47
2023-12-11T14:37:59.027Z,96234.63
2023-12-11T14:40:25.773Z,96237.06
2023-12-11T14:42:52.497Z,96246.22
2023-12-11T14:45:19.159Z,96236.84
2023-12-11T14:47:45.832Z,96251.22
2023-12-11T14:50:12.696Z,96256.59
2023-12-11T14:52:39.545Z,96255.91
2023-12-11T14:55:09.365Z,96257.75
2023-12-11T14:57:37.603Z,96257.63
2023-12-11T15:00:07.334Z,96262.38
2023-12-11T15:02:34.554Z,96271.69
2023-12-11T15:05:01.488Z,96264.56
2023-12-11T15:11:16.875Z,96253.34
2023-12-11T15:13:44.025Z,96250.44
2023-12-11T15:16:11.116Z,96251.50
2023-12-11T15:18:37.754Z,96241.03
2023-12-11T15:21:04.443Z,96246.38
2023-12-11T15:23:31.791Z,96238.88
2023-12-11T15:25:58.390Z,96239.78
2023-12-11T15:28:25.003Z,96240.91
2023-12-11T15:30:51.606Z,96242.09
2023-12-11T15:33:18.304Z,96238.28
2023-12-11T15:35:45.183Z,96242.94
2023-12-11T15:38:11.766Z,96251.34
2023-12-11T15:40:38.384Z,96247.31
2023-12-11T15:43:04.968Z,96257.09
2023-12-11T15:45:31.576Z,96247.78
2023-12-11T15:48:01.689Z,96247.94
2023-12-11T15:50:30.631Z,96259.72
2023-12-11T15:52:58.748Z,96256.97
2023-12-11T15:55:25.694Z,96257.84
2023-12-11T15:57:54.096Z,96256.16
2023-12-11T16:00:21.213Z,96253.75
2023-12-11T16:02:47.935Z,96261.41
2023-12-11T16:05:14.574Z,96270.19
2023-12-11T16:07:41.308Z,96266.66
2023-12-11T16:10:08.445Z,96264.56
2023-12-11T16:12:35.039Z,96261.53
2023-12-11T16:15:01.674Z,96259.53
2023-12-11T16:17:28.520Z,96264.38
2023-12-11T16:19:55.639Z,96273.97
2023-12-11T16:22:22.918Z,96276.47
2023-12-11T16:24:49.708Z,96275.44
2023-12-11T16:27:17.568Z,96274.50
2023-12-11T16:29:44.185Z,96277.13
2023-12-11T16:32:10.736Z,96291.91
2023-12-11T16:34:37.412Z,96296.81
2023-12-11T16:37:04.125Z,96286.84
2023-12-11T16:39:30.676Z,96298.66
2023-12-11T16:41:57.243Z,96298.25
2023-12-11T16:44:23.784Z,96301.81
2023-12-11T16:46:50.410Z,96310.41
2023-12-11T16:49:17.087Z,96305.69
2023-12-11T16:51:44.694Z,96318.81
2023-12-11T16:54:11.499Z,96315.13
2023-12-11T16:56:40.898Z,96327.19
2023-12-11T16:59:07.470Z,96325.78
2023-12-11T17:01:34.173Z,96330.22
2023-12-11T17:04:01.357Z,96338.31
2023-12-11T17:06:28.006Z,96339.25
2023-12-11T17:08:54.674Z,96342.56
2023-12-11T17:11:21.305Z,96339.44
2023-12-11T17:13:47.989Z,96342.59
2023-12-11T17:16:14.561Z,96332.25
2023-12-11T17:18:43.790Z,96337.88
2023-12-11T17:21:18.561Z,96339.69
2023-12-11T17:23:52.116Z,96344.81
2023-12-11T17:26:19.067Z,96346.25
2023-12-11T17:28:45.576Z,96344.28
2023-12-11T17:31:12.301Z,96341.53
2023-12-11T17:33:40.209Z,96338.81
2023-12-11T17:36:07.372Z,96337.88
2023-12-11T17:38:33.976Z,96334.00
2023-12-11T17:41:01.488Z,96326.59
2023-12-11T17:43:28.066Z,96331.19
2023-12-11T17:45:54.678Z,96338.81
2023-12-11T17:48:21.336Z,96343.53
2023-12-11T17:50:47.953Z,96336.94
2023-12-11T17:53:14.536Z,96335.03
2023-12-11T17:55:41.156Z,96349.41
2023-12-11T17:58:07.918Z,96347.94
2023-12-11T18:00:34.865Z,96345.00
2023-12-11T18:03:01.476Z,96350.75
2023-12-11T18:05:29.695Z,96355.38
2023-12-11T18:07:56.428Z,96359.38
2023-12-11T18:10:23.192Z,96361.56
2023-12-11T18:12:49.803Z,96356.53
2023-12-11T18:15:16.349Z,96377.59
2023-12-11T18:17:42.915Z,96373.00
2023-12-11T18:20:10.307Z,96367.00
2023-12-11T18:22:36.924Z,96365.22
2023-12-11T18:25:03.939Z,96367.22
2023-12-11T18:27:35.674Z,96373.50
2023-12-11T18:30:06.414Z,96373.72
2023-12-11T18:32:32.988Z,96377.28
2023-12-11T18:35:01.651Z,96374.75
2023-12-11T18:37:28.842Z,96391.31
2023-12-11T18:39:55.988Z,96389.75
2023-12-11T18:42:22.571Z,96387.13
2023-12-11T18:44:49.159Z,96382.19
2023-12-11T18:47:15.712Z,96385.22
2023-12-11T18:49:45.824Z,96401.91
2023-12-11T18:52:15.569Z,96400.00
2023-12-11T18:54:42.700Z,96397.50
2023-12-11T18:57:10.300Z,96403.25
2023-12-11T18:59:36.914Z,96401.69
2023-12-11T19:02:05.221Z,96399.81
2023-12-11T19:04:31.935Z,96402.53
2023-12-11T19:06:58.594Z,96398.56
2023-12-11T19:09:25.309Z,96407.34
2023-12-11T19:11:52.160Z,96408.09
2023-12-11T19:14:19.145Z,96412.06
2023-12-11T19:16:45.972Z,96409.03
2023-12-11T19:19:12.645Z,96407.44
2023-12-11T19:21:39.217Z,96403.56
2023-12-11T19:24:07.175Z,96411.09
2023-12-11T19:26:36.201Z,96402.31
2023-12-11T19:29:02.783Z,96406.72
2023-12-11T19:31:29.371Z,96406.81
2023-12-11T19:33:56.712Z,96403.13
2023-12-11T19:36:23.389Z,96410.16
2023-12-11T19:38:49.988Z,96412.25
2023-12-11T19:41:16.713Z,96415.16
2023-12-11T19:43:43.229Z,96414.66
2023-12-11T19:46:09.805Z,96418.31
2023-12-11T19:48:37.648Z,96430.47
2023-12-11T19:51:04.324Z,96427.31
2023-12-11T19:53:30.877Z,96438.22
2023-12-11T19:55:57.385Z,96450.69
2023-12-11T19:58:24.072Z,96442.59
2023-12-11T20:00:50.760Z,96458.97
2023-12-11T20:03:17.371Z,96466.81
2023-12-11T20:05:44.080Z,96474.88
2023-12-11T20:08:10.686Z,96479.66
2023-12-11T20:10:37.228Z,96478.28
2023-12-11T20:13:03.818Z,96485.59
2023-12-11T20:15:30.365Z,96485.16
2023-12-11T20:17:56.957Z,96499.69
2023-12-11T20:20:24.051Z,96500.78
2023-12-11T20:22:50.649Z,96498.38
2023-12-11T20:25:17.224Z,96505.56
2023-12-11T20:27:43.801Z,96505.69
2023-12-11T20:30:10.948Z,96501.56
2023-12-11T20:32:38.144Z,96509.72
2023-12-11T20:35:06.245Z,96516.03
2023-12-11T20:37:34.119Z,96524.19
2023-12-11T20:40:01.047Z,96527.00
2023-12-11T20:42:27.616Z,96520.91
2023-12-11T20:44:54.776Z,96535.03
2023-12-11T20:47:21.291Z,96544.00
2023-12-11T20:49:48.022Z,96547.75
2023-12-11T20:52:14.671Z,96565.94
2023-12-11T20:54:44.251Z,96574.81
2023-12-11T20:57:11.274Z,96580.91
2023-12-11T20:59:37.803Z,96573.78
2023-12-11T21:02:04.654Z,96555.13
2023-12-11T21:04:31.352Z,96554.25
2023-12-11T21:06:58.256Z,96557.28
2023-12-11T21:09:24.752Z,96565.94
2023-12-11T21:11:51.274Z,96566.16
2023-12-11T21:14:17.841Z,96572.38
2023-12-11T21:16:45.840Z,96564.53
2023-12-11T21:19:15.632Z,96572.34
2023-12-11T21:21:42.200Z,96580.91
2023-12-11T21:24:09.942Z,96576.22
2023-12-11T21:26:36.762Z,96571.63
2023-12-11T21:29:03.402Z,96564.19
2023-12-11T21:31:30.857Z,96572.47
2023-12-11T21:33:58.898Z,96573.81
2023-12-11T21:36:32.109Z,96568.59
2023-12-11T21:38:59.681Z,96572.53
2023-12-11T21:41:26.938Z,96567.22
2023-12-11T21:43:54.373Z,96577.50
2023-12-11T21:46:21.686Z,96576.09
2023-12-11T21:48:49.534Z,96572.59
2023-12-11T21:51:18.968Z,96573.66
2023-12-11T21:53:46.182Z,96588.25
2023-12-11T21:56:12.791Z,96581.38
2023-12-11T21:58:40.743Z,96588.63
2023-12-11T22:01:07.437Z,96603.50
2023-12-11T22:03:34.149Z,96609.50
2023-12-11T22:06:01.013Z,96617.25
2023-12-11T22:08:27.825Z,96610.16
2023-12-11T22:10:54.909Z,96590.31
2023-12-11T22:13:21.623Z,96596.13
2023-12-11T22:15:48.213Z,96601.88
2023-12-11T22:18:14.914Z,96608.75
2023-12-11T22:20:43.009Z,96609.75
2023-12-11T22:23:09.784Z,96603.66
2023-12-11T22:25:37.303Z,96605.53
2023-12-11T22:28:04.087Z,96616.00
2023-12-11T22:30:30.700Z,96627.47
2023-12-11T22:32:57.478Z,96627.78
2023-12-11T22:35:23.999Z,96628.91
2023-12-11T22:37:50.558Z,96634.47
2023-12-11T22:40:17.266Z,96614.41
2023-12-11T22:42:43.953Z,96613.66
2023-12-11T22:45:10.719Z,96606.75
2023-12-11T22:47:38.111Z,96619.31
2023-12-11T22:50:05.136Z,96615.88
2023-12-11T22:52:31.901Z,96615.09
2023-12-11T22:54:58.511Z,96610.81
2023-12-11T22:57:25.101Z,96617.63
2023-12-11T22:59:51.598Z,96621.84
2023-12-11T23:02:18.175Z,96622.69
2023-12-11T23:04:44.834Z,96618.94
2023-12-11T23:07:11.412Z,96616.91
2023-12-11T23:09:37.965Z,96619.97
2023-12-11T23:12:04.827Z,96616.63
2023-12-11T23:14:31.497Z,96617.84
2023-12-11T23:16:57.980Z,96618.50
2023-12-11T23:19:24.592Z,96615.53
2023-12-11T23:21:51.877Z,96611.81
2023-12-11T23:24:19.977Z,96610.88
2023-12-11T23:26:46.560Z,96608.69
2023-12-11T23:29:13.167Z,96605.53
2023-12-11T23:31:39.724Z,96602.50
2023-12-11T23:34:07.170Z,96594.38
2023-12-11T23:36:33.818Z,96606.44
2023-12-11T23:39:00.366Z,96614.44
2023-12-11T23:41:26.937Z,96607.03
2023-12-11T23:43:54.104Z,96614.47
2023-12-11T23:46:20.798Z,96619.91
2023-12-11T23:48:47.577Z,96611.84
2023-12-11T23:51:14.214Z,96607.91
2023-12-11T23:53:40.768Z,96603.09
2023-12-11T23:56:07.772Z,96610.81
2023-12-11T23:58:34.901Z,96613.03
